Time,TemperatureF,DewpointF,PressureIn,WindDirection,WindDirectionDegrees,WindSpeedMPH,WindSpeedGustMPH,Humidity,HourlyPrecipIn,Conditions,Clouds,dailyrainin,SoftwareType,DateUTC
2013-06-22 09:22:00,51.0,39.0,-100.00,SW,216,10.0,15.0,62,0.00,,,0.00,,2013-06-22 15:22:00,
2013-06-22 09:34:00,53.0,38.0,-100.00,WSW,237,14.0,17.0,59,0.00,,,0.00,,2013-06-22 15:34:00,
2013-06-22 09:43:00,53.0,37.0,-100.00,SW,229,16.0,19.0,56,0.00,,,0.00,,2013-06-22 15:43:00,
2013-06-22 09:53:00,53.0,37.0,-100.00,SW,229,16.0,19.0,56,0.00,,,0.00,,2013-06-22 15:53:00,
2013-06-22 10:02:00,53.0,38.0,-100.00,WSW,240,13.0,17.0,56,0.00,,,0.00,,2013-06-22 16:02:00,
2013-06-22 10:12:00,54.0,38.0,-100.00,SW,234,13.0,18.0,55,0.00,,,0.00,,2013-06-22 16:12:00,
2013-06-22 10:22:00,54.0,38.0,-100.00,SW,234,13.0,18.0,55,0.00,,,0.00,,2013-06-22 16:22:00,
2013-06-22 10:34:00,54.0,38.0,-100.00,SW,232,18.0,24.0,55,0.00,,,0.00,,2013-06-22 16:34:00,
2013-06-22 10:52:00,55.0,39.0,-100.00,WSW,240,15.0,20.0,54,0.00,,,0.00,,2013-06-22 16:52:00,
2013-06-22 11:01:00,55.0,38.0,-100.00,SW,227,20.0,26.0,54,0.00,,,0.00,,2013-06-22 17:01:00,
2013-06-22 11:11:00,57.0,40.0,-100.00,WSW,239,14.0,20.0,52,0.00,,,0.00,,2013-06-22 17:11:00,
2013-06-22 11:22:00,57.0,40.0,-100.00,WSW,239,14.0,20.0,52,0.00,,,0.00,,2013-06-22 17:22:00,
2013-06-22 11:43:00,57.0,39.0,-100.00,SSW,209,12.0,16.0,51,0.00,,,0.00,,2013-06-22 17:43:00,
2013-06-22 11:52:00,57.0,39.0,-100.00,SSW,209,12.0,16.0,51,0.00,,,0.00,,2013-06-22 17:52:00,
2013-06-22 12:01:00,58.0,39.0,-100.00,SSW,208,13.0,17.0,50,0.00,,,0.00,,2013-06-22 18:01:00,
2013-06-22 12:12:00,58.0,39.0,-100.00,SSW,208,13.0,17.0,50,0.00,,,0.00,,2013-06-22 18:12:00,
2013-06-22 12:33:00,59.0,38.0,-100.00,SW,226,15.0,21.0,46,0.00,,,0.00,,2013-06-22 18:33:00,
2013-06-22 12:43:00,59.0,38.0,-100.00,SW,226,15.0,21.0,46,0.00,,,0.00,,2013-06-22 18:43:00,
2013-06-22 12:52:00,59.0,38.0,-100.00,SW,226,15.0,21.0,46,0.00,,,0.00,,2013-06-22 18:52:00,
2013-06-22 13:01:00,59.0,36.0,-100.00,SW,222,13.0,17.0,41,0.00,,,0.00,,2013-06-22 19:01:00,
2013-06-22 13:22:00,60.0,36.0,-100.00,SSW,200,9.0,18.0,41,0.00,,,0.00,,2013-06-22 19:22:00,
2013-06-22 13:30:00,62.0,36.0,-100.00,SSW,203,13.0,17.0,39,0.00,,,0.00,,2013-06-22 19:30:00,
2013-06-22 13:33:00,60.0,37.0,-100.00,SW,234,16.0,20.0,41,0.00,,,0.00,,2013-06-22 19:33:00,
2013-06-22 13:42:00,60.0,36.0,-100.00,SW,230,16.0,20.0,40,0.00,,,0.00,,2013-06-22 19:42:00,
2013-06-22 13:53:00,60.0,36.0,-100.00,SW,230,16.0,20.0,40,0.00,,,0.00,,2013-06-22 19:53:00,
2013-06-22 14:02:00,62.0,36.0,-100.00,SSW,203,13.0,17.0,39,0.00,,,0.00,,2013-06-22 20:02:00,
2013-06-22 14:11:00,62.0,36.0,-100.00,SSW,203,13.0,17.0,39,0.00,,,0.00,,2013-06-22 20:11:00,
2013-06-22 14:22:00,62.0,36.0,-100.00,SSW,203,13.0,17.0,39,0.00,,,0.00,,2013-06-22 20:22:00,
2013-06-22 14:43:00,62.0,35.0,-100.00,SSW,202,10.0,15.0,36,0.00,,,0.00,,2013-06-22 20:43:00,
2013-06-22 14:53:00,62.0,35.0,-100.00,SSW,202,10.0,15.0,36,0.00,,,0.00,,2013-06-22 20:53:00,
2013-06-22 15:01:00,63.0,38.0,-100.00,SW,232,15.0,20.0,39,0.00,,,0.00,,2013-06-22 21:01:00,
2013-06-22 15:11:00,63.0,38.0,-100.00,SW,232,15.0,20.0,39,0.00,,,0.00,,2013-06-22 21:11:00,
2013-06-22 15:22:00,63.0,35.0,-100.00,SSW,205,14.0,20.0,34,0.00,,,0.00,,2013-06-22 21:22:00,
2013-06-22 15:33:00,63.0,35.0,-100.00,SSW,205,14.0,20.0,34,0.00,,,0.00,,2013-06-22 21:33:00,
2013-06-22 15:43:00,64.0,33.0,-100.00,SSW,206,16.0,24.0,32,0.00,,,0.00,,2013-06-22 21:43:00,
2013-06-22 16:01:00,65.0,37.0,-100.00,SSW,192,13.0,19.0,35,0.00,,,0.00,,2013-06-22 22:01:00,
2013-06-22 16:12:00,65.0,36.0,-100.00,SSW,196,11.0,18.0,34,0.00,,,0.00,,2013-06-22 22:12:00,
2013-06-22 16:23:00,65.0,36.0,-100.00,SSW,196,11.0,18.0,34,0.00,,,0.00,,2013-06-22 22:23:00,
2013-06-22 17:01:00,67.0,33.0,-100.00,SSW,203,7.0,11.0,29,0.00,,,0.00,,2013-06-22 23:01:00,
2013-06-22 17:22:00,67.0,34.0,-100.00,SSW,206,9.0,15.0,29,0.00,,,0.00,,2013-06-22 23:22:00,
2013-06-22 17:34:00,66.0,32.0,-100.00,SSW,203,8.0,12.0,28,0.00,,,0.00,,2013-06-22 23:34:00,
2013-06-22 17:43:00,66.0,32.0,-100.00,SSW,203,8.0,12.0,28,0.00,,,0.00,,2013-06-22 23:43:00,
2013-06-22 17:52:00,66.0,32.0,-100.00,SSW,203,8.0,12.0,28,0.00,,,0.00,,2013-06-22 23:52:00,
2013-06-22 18:01:00,67.0,35.0,-100.00,South,191,11.0,17.0,31,0.00,,,0.00,,2013-06-23 00:01:00,
2013-06-22 18:11:00,67.0,35.0,-100.00,South,191,11.0,17.0,31,0.00,,,0.00,,2013-06-23 00:11:00,
2013-06-22 18:22:00,68.0,35.0,-100.00,SSW,195,8.0,14.0,30,0.00,,,0.00,,2013-06-23 00:22:00,
2013-06-22 18:33:00,67.0,34.0,-100.00,SSW,212,12.0,18.0,29,0.00,,,0.00,,2013-06-23 00:33:00,
2013-06-22 18:42:00,68.0,36.0,-100.00,South,188,9.0,15.0,30,0.00,,,0.00,,2013-06-23 00:42:00,
2013-06-22 19:01:00,68.0,35.0,-100.00,South,188,12.0,17.0,30,0.00,,,0.00,,2013-06-23 01:01:00,
2013-06-22 19:11:00,67.0,36.0,-100.00,SSW,205,9.0,14.0,31,0.00,,,0.00,,2013-06-23 01:11:00,
2013-06-22 19:21:00,67.0,36.0,-100.00,SSW,205,9.0,14.0,31,0.00,,,0.00,,2013-06-23 01:21:00,
2013-06-22 19:32:00,67.0,33.0,-100.00,SSW,198,9.0,13.0,28,0.00,,,0.00,,2013-06-23 01:32:00,
2013-06-22 19:42:00,67.0,35.0,-100.00,SSW,192,9.0,15.0,30,0.00,,,0.00,,2013-06-23 01:42:00,
2013-06-22 19:52:00,67.0,35.0,-100.00,SSW,192,9.0,15.0,30,0.00,,,0.00,,2013-06-23 01:52:00,
2013-06-22 20:01:00,67.0,40.0,-100.00,South,175,6.0,9.0,37,0.00,,,0.00,,2013-06-23 02:01:00,
2013-06-22 20:11:00,65.0,40.0,-100.00,SSE,167,10.0,13.0,40,0.00,,,0.00,,2013-06-23 02:11:00,
2013-06-22 20:21:00,65.0,40.0,-100.00,SSE,167,10.0,13.0,40,0.00,,,0.00,,2013-06-23 02:21:00,
2013-06-22 22:11:00,54.0,43.0,-100.00,SSW,193,4.0,5.0,66,0.00,,,0.00,,2013-06-23 04:11:00,
2013-06-22 22:21:00,54.0,43.0,-100.00,SSW,193,4.0,5.0,66,0.00,,,0.00,,2013-06-23 04:21:00,
2013-06-22 23:11:00,51.0,43.0,-100.00,SSW,195,2.0,3.0,73,0.00,,,0.00,,2013-06-23 05:11:00,
2013-06-22 23:22:00,51.0,43.0,-100.00,SSW,195,2.0,3.0,73,0.00,,,0.00,,2013-06-23 05:22:00,
2013-06-22 23:31:00,51.0,43.0,-100.00,SSW,195,2.0,3.0,73,0.00,,,0.00,,2013-06-23 05:31:00,
2013-06-22 23:41:00,49.0,41.0,-100.00,SSW,200,2.0,3.0,73,0.00,,,0.00,,2013-06-23 05:41:00,
2013-06-22 23:51:00,49.0,41.0,-100.00,SSW,200,2.0,3.0,73,0.00,,,0.00,,2013-06-23 05:51:00,